createdAt,value
2019-03-10T00:00:27.749Z,10.30
2019-03-10T00:03:30.021Z,10.30
2019-03-10T00:06:32.284Z,10.30
2019-03-10T00:09:34.548Z,10.20
2019-03-10T00:12:36.832Z,10.20
2019-03-10T00:15:39.144Z,10.20
2019-03-10T00:18:41.403Z,10.20
2019-03-10T00:21:43.694Z,10.20
2019-03-10T00:24:46.019Z,10.20
2019-03-10T00:27:48.264Z,10.20
2019-03-10T00:30:50.514Z,10.20
2019-03-10T00:33:52.763Z,10.10
2019-03-10T00:36:55.007Z,10.20
2019-03-10T00:42:13.357Z,10.10
2019-03-10T00:45:27.739Z,10.10
2019-03-10T00:48:44.102Z,10.10
2019-03-10T00:51:56.583Z,10.10
2019-03-10T00:54:58.870Z,10.10
2019-03-10T00:58:01.170Z,10.10
2019-03-10T01:01:03.491Z,10.10
2019-03-10T01:04:05.751Z,10.10
2019-03-10T01:07:08.071Z,10.10
2019-03-10T01:10:10.399Z,10.00
2019-03-10T01:13:12.678Z,10.00
2019-03-10T01:16:15.034Z,10.00
2019-03-10T01:19:17.436Z,10.00
2019-03-10T01:22:19.840Z,10.00
2019-03-10T01:25:22.067Z,10.00
2019-03-10T01:28:24.419Z,9.90
2019-03-10T01:31:35.633Z,9.90
2019-03-10T01:35:13.686Z,9.90
2019-03-10T01:38:15.909Z,9.90
2019-03-10T01:41:18.158Z,9.80
2019-03-10T01:44:20.441Z,9.90
2019-03-10T01:47:22.704Z,9.90
2019-03-10T01:50:25.135Z,9.80
2019-03-10T01:53:27.375Z,9.80
2019-03-10T01:56:29.617Z,9.80
2019-03-10T01:59:31.911Z,9.80
2019-03-10T02:02:34.252Z,9.80
2019-03-10T02:05:36.516Z,9.70
2019-03-10T02:08:38.831Z,9.80
2019-03-10T02:11:41.087Z,9.70
2019-03-10T02:14:43.381Z,9.70
2019-03-10T02:17:45.651Z,9.70
2019-03-10T02:20:47.867Z,9.70
2019-03-10T02:23:50.131Z,9.70
2019-03-10T02:26:52.455Z,9.60
2019-03-10T02:29:54.730Z,9.60
2019-03-10T02:32:57.051Z,9.60
2019-03-10T02:35:59.300Z,9.60
2019-03-10T02:39:01.544Z,9.60
2019-03-10T02:42:05.264Z,9.60
2019-03-10T02:45:07.972Z,9.60
2019-03-10T02:48:10.298Z,9.60
2019-03-10T02:51:12.553Z,9.50
2019-03-10T02:54:14.814Z,9.60
2019-03-10T02:57:17.097Z,9.60
2019-03-10T03:00:19.371Z,9.60
2019-03-10T03:03:21.670Z,9.50
2019-03-10T03:06:23.949Z,9.50
2019-03-10T03:09:26.376Z,9.50
2019-03-10T03:12:28.612Z,9.50
2019-03-10T03:15:30.902Z,9.50
2019-03-10T03:18:33.111Z,9.50
2019-03-10T03:21:43.039Z,9.50
2019-03-10T03:24:37.666Z,9.60
2019-03-10T03:27:39.924Z,9.60
2019-03-10T03:30:42.198Z,9.60
2019-03-10T03:33:44.441Z,9.70
2019-03-10T03:36:46.695Z,9.70
2019-03-10T03:39:50.912Z,9.80
2019-03-10T03:42:53.155Z,9.80
2019-03-10T03:45:55.424Z,9.90
2019-03-10T03:48:57.679Z,9.80
2019-03-10T03:52:00.006Z,9.70
2019-03-10T03:55:02.310Z,9.60
2019-03-10T03:58:04.551Z,9.50
2019-03-10T04:01:11.910Z,9.40
2019-03-10T04:04:14.194Z,9.30
2019-03-10T04:07:16.448Z,9.10
2019-03-10T04:10:18.721Z,9.10
2019-03-10T04:13:20.953Z,9.00
2019-03-10T04:16:23.270Z,8.90
2019-03-10T04:19:25.512Z,8.80
2019-03-10T04:22:27.815Z,8.80
2019-03-10T04:25:30.127Z,8.80
2019-03-10T04:28:32.435Z,8.70
2019-03-10T04:31:35.143Z,8.70
2019-03-10T04:34:37.437Z,8.70
2019-03-10T04:37:39.654Z,8.70
2019-03-10T04:40:41.898Z,8.60
2019-03-10T04:43:44.120Z,8.60
2019-03-10T04:46:46.399Z,8.50
2019-03-10T04:49:48.921Z,8.40
2019-03-10T04:52:51.291Z,8.30
2019-03-10T04:55:59.279Z,8.20
2019-03-10T04:59:01.550Z,8.10
2019-03-10T05:02:03.799Z,8.00
2019-03-10T05:05:06.169Z,7.90
2019-03-10T05:08:08.416Z,7.90
2019-03-10T05:11:10.753Z,7.80
2019-03-10T05:14:12.997Z,7.70
2019-03-10T05:17:15.256Z,7.70
2019-03-10T05:20:17.532Z,7.60
2019-03-10T05:23:28.117Z,7.60
2019-03-10T05:26:30.383Z,7.50
2019-03-10T05:29:32.659Z,7.50
2019-03-10T05:32:34.947Z,7.50
2019-03-10T05:35:37.163Z,7.40
2019-03-10T05:38:39.402Z,7.40
2019-03-10T05:41:41.619Z,7.40
2019-03-10T05:44:43.831Z,7.30
2019-03-10T05:47:46.025Z,7.30
2019-03-10T05:50:48.250Z,7.30
2019-03-10T05:53:50.536Z,7.30
2019-03-10T05:56:52.782Z,7.30
2019-03-10T05:59:54.991Z,7.30
2019-03-10T06:02:57.263Z,7.40
2019-03-10T06:05:59.454Z,7.40
2019-03-10T06:09:01.718Z,7.40
2019-03-10T06:12:03.961Z,7.40
2019-03-10T06:15:06.291Z,7.40
2019-03-10T06:18:13.701Z,7.40
2019-03-10T06:21:10.752Z,7.40
2019-03-10T06:24:12.959Z,7.40
2019-03-10T06:27:15.190Z,7.40
2019-03-10T06:30:17.483Z,7.40
2019-03-10T06:33:19.757Z,7.40
2019-03-10T06:36:21.991Z,7.50
2019-03-10T06:39:24.188Z,7.50
2019-03-10T06:42:26.427Z,7.50
2019-03-10T06:45:28.654Z,7.40
2019-03-10T06:48:30.866Z,7.40
2019-03-10T06:51:33.097Z,7.50
2019-03-10T06:54:35.315Z,7.50
2019-03-10T06:57:37.555Z,7.50
2019-03-10T07:00:39.790Z,7.50
2019-03-10T07:03:42.072Z,7.50
2019-03-10T07:06:44.293Z,7.60
2019-03-10T07:09:46.543Z,7.50
2019-03-10T07:12:48.731Z,7.60
2019-03-10T07:15:50.955Z,7.60
2019-03-10T07:18:53.163Z,7.60
2019-03-10T07:21:55.355Z,7.60
2019-03-10T07:24:57.576Z,7.70
2019-03-10T07:28:05.260Z,7.70
2019-03-10T07:31:13.191Z,7.70
2019-03-10T07:34:22.808Z,7.70
2019-03-10T07:37:29.603Z,7.80
2019-03-10T07:40:37.543Z,7.80
2019-03-10T07:43:47.228Z,7.90
2019-03-10T07:46:56.889Z,7.90
2019-03-10T07:50:04.635Z,8.00
2019-03-10T07:53:12.275Z,8.10
2019-03-10T07:56:20.228Z,8.10
2019-03-10T07:59:27.081Z,8.20
2019-03-10T08:02:35.785Z,8.30
2019-03-10T08:05:48.527Z,8.40
2019-03-10T08:09:00.535Z,8.60
2019-03-10T08:12:06.107Z,8.80
2019-03-10T08:15:12.957Z,9.00
2019-03-10T08:18:21.583Z,9.20
2019-03-10T08:21:32.243Z,9.40
2019-03-10T08:24:40.867Z,9.50
2019-03-10T08:27:48.640Z,9.70
2019-03-10T08:30:58.382Z,9.70
2019-03-10T08:34:12.152Z,9.80
2019-03-10T08:37:20.696Z,9.90
2019-03-10T08:40:37.471Z,10.00
2019-03-10T08:43:46.067Z,10.20
2019-03-10T08:46:53.867Z,10.20
2019-03-10T08:50:08.615Z,10.30
2019-03-10T08:53:18.352Z,10.40
2019-03-10T08:56:26.103Z,10.40
2019-03-10T08:59:35.907Z,10.50
2019-03-10T09:02:42.741Z,10.50
2019-03-10T09:05:50.647Z,10.50
2019-03-10T09:08:58.623Z,10.60
2019-03-10T09:12:12.340Z,10.70
2019-03-10T09:15:19.960Z,10.70
2019-03-10T09:19:33.874Z,10.70
2019-03-10T09:22:42.924Z,10.80
2019-03-10T09:25:50.707Z,10.80
2019-03-10T09:28:59.310Z,10.80
2019-03-10T09:32:09.001Z,10.80
2019-03-10T09:35:20.475Z,10.70
2019-03-10T09:38:33.124Z,10.80
2019-03-10T09:41:40.949Z,10.80
2019-03-10T09:44:51.579Z,10.80
2019-03-10T09:47:58.372Z,10.80
2019-03-10T09:51:05.988Z,10.70
2019-03-10T09:54:13.723Z,10.80
2019-03-10T09:57:21.341Z,10.80
2019-03-10T10:00:30.091Z,10.80
2019-03-10T10:03:39.875Z,10.80
2019-03-10T10:07:03.644Z,10.80
2019-03-10T10:10:15.635Z,10.70
2019-03-10T10:13:23.447Z,10.70
2019-03-10T10:16:32.127Z,10.60
2019-03-10T10:19:41.878Z,10.50
2019-03-10T10:22:50.704Z,10.50
2019-03-10T10:25:58.607Z,10.50
2019-03-10T10:29:11.399Z,10.40
2019-03-10T10:32:19.205Z,10.40
2019-03-10T10:35:32.139Z,10.40
2019-03-10T10:38:39.783Z,10.40
2019-03-10T10:42:17.528Z,10.30
2019-03-10T10:45:33.360Z,10.30
2019-03-10T10:48:40.443Z,10.30
2019-03-10T10:51:49.022Z,10.30
2019-03-10T10:55:02.281Z,10.30
2019-03-10T10:58:12.026Z,10.30
2019-03-10T11:01:22.820Z,10.30
2019-03-10T11:04:30.667Z,10.30
2019-03-10T11:07:37.572Z,10.30
2019-03-10T11:10:48.485Z,10.20
2019-03-10T11:13:56.130Z,10.30
2019-03-10T11:17:04.980Z,10.30
2019-03-10T11:20:15.147Z,10.30
2019-03-10T11:23:52.908Z,10.30
2019-03-10T11:27:01.535Z,10.30
2019-03-10T11:30:19.952Z,10.30
2019-03-10T11:33:32.643Z,10.30
2019-03-10T11:36:40.323Z,10.30
2019-03-10T11:40:05.134Z,10.40
2019-03-10T11:43:11.983Z,10.40
2019-03-10T11:46:27.932Z,10.40
2019-03-10T11:49:34.752Z,10.50
2019-03-10T11:52:57.546Z,10.50
2019-03-10T11:56:05.218Z,10.60
2019-03-10T11:59:11.515Z,10.60
2019-03-10T12:02:25.132Z,10.70
2019-03-10T12:05:33.740Z,10.80
2019-03-10T12:08:41.627Z,10.80
2019-03-10T12:11:43.921Z,10.90
2019-03-10T12:14:46.143Z,10.90
2019-03-10T12:17:48.385Z,10.90
2019-03-10T12:20:50.616Z,11.00
2019-03-10T12:23:52.846Z,11.00
2019-03-10T12:26:55.104Z,11.10
2019-03-10T12:29:57.328Z,11.20
2019-03-10T12:32:59.620Z,11.20
2019-03-10T12:36:01.846Z,11.30
2019-03-10T12:39:06.680Z,11.40
2019-03-10T12:42:08.908Z,11.50
2019-03-10T12:45:11.394Z,11.70
2019-03-10T12:48:13.651Z,11.80
2019-03-10T12:51:15.912Z,12.00
2019-03-10T12:54:18.149Z,12.00
2019-03-10T12:57:20.379Z,12.10
2019-03-10T13:00:22.644Z,12.10
2019-03-10T13:03:24.899Z,12.20
2019-03-10T13:06:27.191Z,12.30
2019-03-10T13:09:29.561Z,12.40
2019-03-10T13:12:31.832Z,12.50
2019-03-10T13:15:34.123Z,12.60
2019-03-10T13:18:36.361Z,12.70
2019-03-10T13:21:38.709Z,12.70
2019-03-10T13:24:40.835Z,12.70
2019-03-10T13:27:43.097Z,12.80
2019-03-10T13:30:45.318Z,12.80
2019-03-10T13:33:47.575Z,12.90
2019-03-10T13:36:49.861Z,13.00
2019-03-10T13:39:52.072Z,13.10
2019-03-10T13:42:54.319Z,13.10
2019-03-10T13:45:56.521Z,13.10
2019-03-10T13:48:58.799Z,13.20
2019-03-10T13:52:01.031Z,13.20
2019-03-10T13:55:03.626Z,13.20
2019-03-10T13:58:05.892Z,13.20
2019-03-10T14:01:08.181Z,13.30
2019-03-10T14:04:10.417Z,13.30
2019-03-10T14:07:12.620Z,13.30
2019-03-10T14:10:14.883Z,13.40
2019-03-10T14:13:17.155Z,13.40
2019-03-10T14:16:19.455Z,13.40
2019-03-10T14:19:22.139Z,13.40
2019-03-10T14:22:26.305Z,13.40
2019-03-10T14:25:38.829Z,13.40
2019-03-10T14:28:41.268Z,13.40
2019-03-10T14:31:43.575Z,13.40
2019-03-10T14:34:45.793Z,13.50
2019-03-10T14:37:48.259Z,13.50
2019-03-10T14:40:50.802Z,13.50
2019-03-10T14:43:53.099Z,13.40
2019-03-10T14:46:55.332Z,13.40
2019-03-10T14:49:57.568Z,13.40
2019-03-10T14:52:59.841Z,13.40
2019-03-10T14:56:02.079Z,13.30
2019-03-10T14:59:04.365Z,13.30
2019-03-10T15:02:06.616Z,13.40
2019-03-10T15:05:08.925Z,13.50
2019-03-10T15:08:11.199Z,13.50
2019-03-10T15:11:13.449Z,13.30
2019-03-10T15:14:15.739Z,13.30
2019-03-10T15:17:18.018Z,13.20
2019-03-10T15:20:21.688Z,13.20
2019-03-10T15:23:22.939Z,13.10
2019-03-10T15:26:25.199Z,13.10
2019-03-10T15:29:27.480Z,13.00
2019-03-10T15:32:29.699Z,12.80
2019-03-10T15:35:31.943Z,12.70
2019-03-10T15:38:34.155Z,12.50
2019-03-10T15:41:36.400Z,12.50
2019-03-10T15:44:38.667Z,12.50
2019-03-10T15:47:40.915Z,12.40
2019-03-10T15:50:43.232Z,12.40
2019-03-10T15:53:45.468Z,12.40
2019-03-10T15:56:48.134Z,12.40
2019-03-10T15:59:50.393Z,12.30
2019-03-10T16:02:52.726Z,12.30
2019-03-10T16:05:55.215Z,12.30
2019-03-10T16:08:57.587Z,12.20
2019-03-10T16:11:59.873Z,12.10
2019-03-10T16:15:02.215Z,12.00
2019-03-10T16:18:04.551Z,11.90
2019-03-10T16:21:06.816Z,11.90
2019-03-10T16:24:09.109Z,11.90
2019-03-10T16:27:11.351Z,11.90
2019-03-10T16:30:15.228Z,11.90
2019-03-10T16:33:17.532Z,11.80
2019-03-10T16:36:19.808Z,11.80
2019-03-10T16:39:22.091Z,11.80
2019-03-10T16:42:24.342Z,11.70
2019-03-10T16:45:26.628Z,11.80
2019-03-10T16:48:29.306Z,11.70
2019-03-10T16:51:31.627Z,11.80
2019-03-10T16:54:33.905Z,11.70
2019-03-10T16:57:36.247Z,11.70
2019-03-10T17:00:38.600Z,11.60
2019-03-10T17:03:40.828Z,11.60
2019-03-10T17:06:43.164Z,11.60
2019-03-10T17:09:45.437Z,11.60
2019-03-10T17:12:47.767Z,11.50
2019-03-10T17:15:50.037Z,11.40
2019-03-10T17:18:52.351Z,11.40
2019-03-10T17:21:54.659Z,11.40
2019-03-10T17:24:56.992Z,11.30
2019-03-10T17:27:59.240Z,11.30
2019-03-10T17:31:01.523Z,11.20
2019-03-10T17:34:03.905Z,11.10
2019-03-10T17:37:06.175Z,11.00
2019-03-10T17:40:11.107Z,11.00
2019-03-10T17:43:13.336Z,10.90
2019-03-10T17:46:15.709Z,10.90
2019-03-10T17:49:19.043Z,10.80
2019-03-10T17:52:22.664Z,10.70
2019-03-10T17:55:25.454Z,10.70
2019-03-10T17:58:27.940Z,10.80
2019-03-10T18:01:30.959Z,10.80
2019-03-10T18:04:34.343Z,10.80
2019-03-10T18:07:38.791Z,10.80
2019-03-10T18:10:41.867Z,10.80
2019-03-10T18:13:45.623Z,10.80
2019-03-10T18:16:50.508Z,10.80
2019-03-10T18:19:56.424Z,10.80
2019-03-10T18:23:01.382Z,10.70
2019-03-10T18:26:03.753Z,10.70
2019-03-10T18:29:08.069Z,10.70
2019-03-10T18:32:10.667Z,10.60
2019-03-10T18:35:13.849Z,10.60
2019-03-10T18:38:17.821Z,10.50
2019-03-10T18:41:27.420Z,10.40
2019-03-10T18:44:31.230Z,10.30
2019-03-10T18:47:35.927Z,10.30
2019-03-10T18:50:39.533Z,10.20
2019-03-10T18:53:42.756Z,10.20
2019-03-10T18:56:45.529Z,10.10
2019-03-10T18:59:53.804Z,10.00
2019-03-10T19:02:57.642Z,10.00
2019-03-10T19:06:01.006Z,10.00
2019-03-10T19:09:05.260Z,9.90
2019-03-10T19:12:08.143Z,9.90
2019-03-10T19:15:12.592Z,9.80
2019-03-10T19:18:15.481Z,9.80
2019-03-10T19:21:18.692Z,9.80
2019-03-10T19:24:22.483Z,9.70
2019-03-10T19:27:30.167Z,9.70
2019-03-10T19:30:29.828Z,9.70
2019-03-10T19:33:32.666Z,9.70
2019-03-10T19:36:35.710Z,9.60
2019-03-10T19:39:39.950Z,9.60
2019-03-10T19:42:43.769Z,9.60
2019-03-10T19:45:47.740Z,9.50
2019-03-10T19:48:51.203Z,9.50
2019-03-10T19:51:53.669Z,9.40
2019-03-10T19:54:56.881Z,9.40
2019-03-10T19:57:59.359Z,9.40
2019-03-10T20:01:02.091Z,9.40
2019-03-10T20:04:04.721Z,9.60
2019-03-10T20:07:07.291Z,9.90
2019-03-10T20:10:10.839Z,9.90
2019-03-10T20:13:13.201Z,9.80
2019-03-10T20:16:15.638Z,9.70
2019-03-10T20:19:18.273Z,9.50
2019-03-10T20:22:20.775Z,9.40
2019-03-10T20:25:23.945Z,9.40
2019-03-10T20:28:27.527Z,9.30
2019-03-10T20:31:29.870Z,9.20
2019-03-10T20:34:32.385Z,9.20
2019-03-10T20:37:35.105Z,9.20
2019-03-10T20:40:37.484Z,9.20
2019-03-10T20:43:41.053Z,9.10
2019-03-10T20:46:44.311Z,9.10
2019-03-10T20:49:46.972Z,9.10
2019-03-10T20:52:49.389Z,9.10
2019-03-10T20:55:51.803Z,9.10
2019-03-10T20:58:54.126Z,9.20
2019-03-10T21:01:56.387Z,9.20
2019-03-10T21:04:58.602Z,9.10
2019-03-10T21:08:00.875Z,9.10
2019-03-10T21:11:03.421Z,9.00
2019-03-10T21:14:05.644Z,9.00
2019-03-10T21:17:07.873Z,9.00
2019-03-10T21:20:11.675Z,8.80
2019-03-10T21:23:13.897Z,8.60
2019-03-10T21:26:16.143Z,8.50
2019-03-10T21:29:18.430Z,8.30
2019-03-10T21:32:20.719Z,8.20
2019-03-10T21:35:23.044Z,8.10
2019-03-10T21:38:25.295Z,8.00
2019-03-10T21:41:27.585Z,7.90
2019-03-10T21:44:29.993Z,7.90
2019-03-10T21:47:32.283Z,7.70
2019-03-10T21:50:34.526Z,7.70
2019-03-10T21:53:36.786Z,7.60
2019-03-10T21:56:39.024Z,7.60
2019-03-10T21:59:41.260Z,7.50
2019-03-10T22:02:43.523Z,7.30
2019-03-10T22:05:45.788Z,7.20
2019-03-10T22:08:47.999Z,7.00
2019-03-10T22:11:50.220Z,6.80
2019-03-10T22:14:52.523Z,6.70
2019-03-10T22:17:54.783Z,6.60
2019-03-10T22:20:57.039Z,6.50
2019-03-10T22:23:59.899Z,6.40
2019-03-10T22:27:01.587Z,6.40
2019-03-10T22:30:04.277Z,6.40
2019-03-10T22:33:06.519Z,6.30
2019-03-10T22:36:09.082Z,6.30
2019-03-10T22:39:11.327Z,6.30
2019-03-10T22:42:13.618Z,6.30
2019-03-10T22:45:15.883Z,6.30
2019-03-10T22:48:18.172Z,6.30
2019-03-10T22:51:20.414Z,6.30
2019-03-10T22:54:22.676Z,6.30
2019-03-10T22:57:25.007Z,6.30
2019-03-10T23:00:31.878Z,6.30
2019-03-10T23:03:34.150Z,6.40
2019-03-10T23:06:36.398Z,6.40
2019-03-10T23:09:38.651Z,6.40
2019-03-10T23:12:41.129Z,6.40
2019-03-10T23:15:43.665Z,6.20
2019-03-10T23:18:45.930Z,6.10
2019-03-10T23:21:48.303Z,6.10
2019-03-10T23:24:50.608Z,6.00
2019-03-10T23:27:52.983Z,5.90
2019-03-10T23:30:55.311Z,5.80
2019-03-10T23:33:57.584Z,5.80
2019-03-10T23:36:59.944Z,5.70
2019-03-10T23:40:02.215Z,5.60
2019-03-10T23:43:04.534Z,5.50
2019-03-10T23:46:06.800Z,5.40
2019-03-10T23:49:09.038Z,5.30
2019-03-10T23:52:11.308Z,5.20
2019-03-10T23:55:13.622Z,5.20
2019-03-10T23:58:15.873Z,5.20
